createdAt,value
2019-04-26T00:02:12.276Z,12.25
2019-04-26T00:04:16.655Z,13.78
2019-04-26T00:06:20.851Z,13.85
2019-04-26T00:08:24.688Z,12.30
2019-04-26T00:10:46.891Z,12.95
2019-04-26T00:12:58.746Z,11.83
2019-04-26T00:15:16.391Z,12.53
2019-04-26T00:17:22.411Z,12.05
2019-04-26T00:19:26.799Z,12.47
2019-04-26T00:21:31.937Z,11.65
2019-04-26T00:23:36.156Z,12.03
2019-04-26T00:25:40.299Z,12.60
2019-04-26T00:27:44.260Z,12.05
2019-04-26T00:29:48.376Z,12.78
2019-04-26T00:31:52.873Z,13.13
2019-04-26T00:33:56.896Z,12.47
2019-04-26T00:36:03.463Z,11.75
2019-04-26T00:38:07.517Z,12.58
2019-04-26T00:40:12.803Z,10.80
2019-04-26T00:42:18.518Z,11.30
2019-04-26T00:44:22.905Z,10.85
2019-04-26T00:46:29.240Z,10.88
2019-04-26T00:48:33.864Z,11.78
2019-04-26T00:50:37.971Z,11.88
2019-04-26T00:52:43.297Z,10.18
2019-04-26T00:54:47.827Z,11.20
2019-04-26T00:56:55.822Z,10.58
2019-04-26T00:59:00.143Z,10.23
2019-04-26T01:03:45.806Z,11.75
2019-04-26T01:05:59.587Z,11.33
2019-04-26T01:07:56.981Z,11.40
2019-04-26T01:10:00.816Z,10.95
2019-04-26T01:12:04.954Z,11.05
2019-04-26T01:14:09.123Z,10.78
2019-04-26T01:16:13.231Z,10.72
2019-04-26T01:18:18.130Z,11.50
2019-04-26T01:20:24.831Z,11.08
2019-04-26T01:22:31.647Z,10.82
2019-04-26T01:24:36.211Z,11.03
2019-04-26T01:26:40.846Z,11.00
2019-04-26T01:29:02.787Z,11.35
2019-04-26T01:31:08.530Z,11.35
2019-04-26T01:33:13.212Z,11.25
2019-04-26T01:35:17.888Z,11.45
2019-04-26T01:37:23.005Z,11.20
2019-04-26T01:39:27.890Z,10.63
2019-04-26T01:41:36.467Z,11.43
2019-04-26T01:43:59.235Z,11.18
2019-04-26T01:46:11.807Z,10.90
2019-04-26T01:48:36.244Z,11.15
2019-04-26T01:50:40.596Z,11.22
2019-04-26T01:52:45.756Z,11.65
2019-04-26T01:54:49.951Z,11.93
2019-04-26T01:56:56.853Z,11.12
2019-04-26T01:59:01.063Z,11.53
2019-04-26T02:01:23.660Z,11.22
2019-04-26T02:03:29.839Z,11.47
2019-04-26T02:05:33.727Z,11.83
2019-04-26T02:07:43.898Z,12.28
2019-04-26T02:09:47.791Z,10.05
2019-04-26T02:11:51.913Z,10.93
2019-04-26T02:13:56.228Z,10.98
2019-04-26T02:16:00.236Z,10.32
2019-04-26T02:18:05.164Z,11.40
2019-04-26T02:20:09.902Z,11.53
2019-04-26T02:22:15.536Z,11.33
2019-04-26T02:24:21.182Z,10.68
2019-04-26T02:26:36.147Z,11.08
2019-04-26T02:28:40.055Z,11.73
2019-04-26T02:30:44.062Z,11.90
2019-04-26T02:32:49.606Z,11.03
2019-04-26T02:34:54.179Z,10.98
2019-04-26T02:37:01.371Z,10.78
2019-04-26T02:39:08.385Z,11.00
2019-04-26T02:41:12.733Z,11.73
2019-04-26T02:43:19.267Z,10.03
2019-04-26T02:45:30.013Z,11.78
2019-04-26T02:47:40.902Z,11.85
2019-04-26T02:49:49.316Z,11.45
2019-04-26T02:51:56.211Z,10.60
2019-04-26T02:54:22.807Z,12.05
2019-04-26T02:56:30.290Z,10.58
2019-04-26T02:58:43.846Z,11.88
2019-04-26T03:00:48.496Z,10.72
2019-04-26T03:02:55.457Z,11.70
2019-04-26T03:05:02.304Z,11.28
2019-04-26T03:07:09.185Z,11.60
2019-04-26T03:09:16.071Z,11.43
2019-04-26T03:11:23.048Z,11.53
2019-04-26T03:13:32.739Z,11.97
2019-04-26T03:15:44.200Z,11.28
2019-04-26T03:17:52.630Z,11.20
2019-04-26T03:20:10.544Z,11.15
2019-04-26T03:22:19.949Z,11.95
2019-04-26T03:24:31.040Z,11.53
2019-04-26T03:26:39.514Z,11.97
2019-04-26T03:28:55.300Z,11.00
2019-04-26T03:31:02.194Z,12.20
2019-04-26T03:33:26.847Z,11.85
2019-04-26T03:36:07.461Z,12.15
2019-04-26T03:38:34.525Z,11.25
2019-04-26T03:40:58.172Z,12.65
2019-04-26T03:43:07.708Z,12.20
2019-04-26T03:45:17.344Z,11.85
2019-04-26T03:47:26.990Z,10.82
2019-04-26T03:49:49.732Z,11.12
2019-04-26T03:51:56.819Z,11.30
2019-04-26T03:54:09.444Z,12.10
2019-04-26T03:56:20.499Z,11.97
2019-04-26T03:58:57.374Z,12.05
2019-04-26T04:01:17.464Z,11.75
2019-04-26T04:03:43.501Z,12.30
2019-04-26T04:05:50.876Z,11.75
2019-04-26T04:07:56.968Z,11.05
2019-04-26T04:10:06.518Z,12.45
2019-04-26T04:12:25.442Z,12.23
2019-04-26T04:14:42.704Z,11.20
2019-04-26T04:16:57.123Z,12.35
2019-04-26T04:19:26.257Z,12.28
2019-04-26T04:21:52.663Z,11.00
2019-04-26T04:24:05.146Z,11.75
2019-04-26T04:26:10.825Z,12.28
2019-04-26T04:28:32.703Z,12.40
2019-04-26T04:30:51.657Z,12.75
2019-04-26T04:33:01.398Z,12.10
2019-04-26T04:35:13.294Z,11.95
2019-04-26T04:37:18.351Z,13.00
2019-04-26T04:39:25.176Z,12.55
2019-04-26T04:41:53.241Z,12.13
2019-04-26T04:44:28.833Z,12.85
2019-04-26T04:47:24.791Z,13.45
2019-04-26T04:49:29.596Z,13.35
2019-04-26T04:51:36.424Z,13.05
2019-04-26T04:54:01.136Z,13.55
2019-04-26T04:56:24.211Z,12.28
2019-04-26T04:58:34.555Z,12.60
2019-04-26T05:01:15.933Z,12.58
2019-04-26T05:03:39.037Z,13.13
2019-04-26T05:06:06.940Z,12.85
2019-04-26T05:08:22.674Z,12.63
2019-04-26T05:10:38.457Z,12.85
2019-04-26T05:12:57.247Z,12.58
2019-04-26T05:15:20.519Z,13.25
2019-04-26T05:17:36.239Z,12.80
2019-04-26T05:19:58.268Z,12.68
2019-04-26T05:22:05.043Z,13.18
2019-04-26T05:24:15.363Z,12.35
2019-04-26T05:26:41.070Z,13.10
2019-04-26T05:28:58.513Z,12.40
2019-04-26T05:31:32.336Z,11.60
2019-04-26T05:36:07.476Z,12.18
2019-04-26T05:38:37.080Z,12.07
2019-04-26T05:41:08.530Z,12.30
2019-04-26T05:43:19.454Z,11.57
2019-04-26T05:45:42.519Z,11.40
2019-04-26T05:48:12.266Z,12.53
2019-04-26T05:51:02.187Z,11.43
2019-04-26T05:53:57.696Z,12.75
2019-04-26T05:56:34.731Z,11.73
2019-04-26T05:58:54.552Z,11.53
2019-04-26T06:01:23.906Z,11.10
2019-04-26T06:04:06.643Z,10.63
2019-04-26T06:06:27.243Z,10.10
2019-04-26T06:08:38.313Z,11.30
2019-04-26T06:10:57.872Z,11.03
2019-04-26T06:13:21.438Z,10.18
2019-04-26T06:15:38.558Z,10.13
2019-04-26T06:17:55.758Z,10.32
2019-04-26T06:20:23.598Z,10.32
2019-04-26T06:22:57.501Z,10.53
2019-04-26T06:25:09.453Z,9.83
2019-04-26T06:27:17.824Z,9.70
2019-04-26T06:29:44.195Z,10.03
2019-04-26T06:32:00.487Z,9.53
2019-04-26T06:34:10.555Z,9.65
2019-04-26T06:36:18.644Z,10.13
2019-04-26T06:39:06.282Z,10.10
2019-04-26T06:41:25.129Z,9.48
2019-04-26T06:43:33.555Z,8.95
2019-04-26T06:46:00.687Z,9.28
2019-04-26T06:48:20.613Z,8.75
2019-04-26T06:50:44.040Z,9.35
2019-04-26T06:52:53.555Z,9.20
2019-04-26T06:55:10.675Z,9.70
2019-04-26T06:58:01.124Z,9.50
2019-04-26T07:00:18.607Z,8.88
2019-04-26T07:02:40.558Z,8.83
2019-04-26T07:05:15.025Z,8.48
2019-04-26T07:07:32.684Z,8.45
2019-04-26T07:09:51.739Z,8.35
2019-04-26T07:12:29.231Z,8.80
2019-04-26T07:14:57.415Z,8.68
2019-04-26T07:17:09.947Z,7.62
2019-04-26T07:19:51.404Z,7.85
2019-04-26T07:22:35.192Z,7.83
2019-04-26T07:25:03.557Z,8.13
2019-04-26T07:27:19.389Z,8.13
2019-04-26T07:29:30.078Z,7.95
2019-04-26T07:31:52.188Z,7.60
2019-04-26T07:34:00.807Z,7.62
2019-04-26T07:36:29.770Z,6.92
2019-04-26T07:38:52.054Z,7.12
2019-04-26T07:41:21.561Z,6.60
2019-04-26T07:43:55.771Z,6.05
2019-04-26T07:46:08.485Z,6.67
2019-04-26T07:48:27.032Z,6.40
2019-04-26T07:50:52.900Z,6.25
2019-04-26T07:53:28.932Z,6.37
2019-04-26T07:56:07.180Z,6.62
2019-04-26T07:58:31.974Z,6.75
2019-04-26T08:00:45.081Z,6.90
2019-04-26T08:02:56.021Z,5.97
2019-04-26T08:05:18.675Z,6.78
2019-04-26T08:07:25.471Z,5.85
2019-04-26T08:09:31.159Z,5.80
2019-04-26T08:11:43.841Z,5.80
2019-04-26T08:14:12.486Z,5.97
2019-04-26T08:16:25.359Z,5.87
2019-04-26T08:18:42.352Z,5.12
2019-04-26T08:20:49.303Z,5.70
2019-04-26T08:23:02.717Z,5.78
2019-04-26T08:25:08.191Z,5.65
2019-04-26T08:27:22.868Z,6.35
2019-04-26T08:29:23.250Z,5.17
2019-04-26T08:31:31.327Z,5.75
2019-04-26T08:33:40.430Z,6.00
2019-04-26T08:35:49.037Z,5.28
2019-04-26T08:37:55.879Z,5.22
2019-04-26T08:40:00.190Z,5.28
2019-04-26T08:42:05.243Z,5.20
2019-04-26T08:44:14.425Z,5.20
2019-04-26T08:46:26.270Z,5.25
2019-04-26T08:48:49.307Z,5.47
2019-04-26T08:50:56.807Z,5.55
2019-04-26T08:53:05.115Z,5.65
2019-04-26T08:55:10.097Z,5.10
2019-04-26T08:57:15.311Z,5.67
2019-04-26T08:59:28.147Z,5.70
2019-04-26T09:01:51.133Z,4.78
2019-04-26T09:04:11.351Z,5.47
2019-04-26T09:06:21.572Z,5.83
2019-04-26T09:08:28.503Z,5.10
2019-04-26T09:10:35.521Z,5.22
2019-04-26T09:12:42.907Z,6.03
2019-04-26T09:14:52.791Z,5.62
2019-04-26T09:16:56.653Z,5.05
2019-04-26T09:19:00.475Z,5.05
2019-04-26T09:21:04.539Z,5.70
2019-04-26T09:23:10.378Z,5.42
2019-04-26T09:25:24.486Z,4.65
2019-04-26T09:27:30.181Z,5.37
2019-04-26T09:29:35.612Z,5.87
2019-04-26T09:31:50.423Z,5.10
2019-04-26T09:33:54.901Z,5.05
2019-04-26T09:35:59.704Z,4.97
2019-04-26T09:38:03.838Z,5.12
2019-04-26T09:40:10.357Z,4.25
2019-04-26T09:42:24.670Z,4.47
2019-04-26T09:44:41.338Z,4.40
2019-04-26T09:46:48.481Z,4.62
2019-04-26T09:49:06.950Z,4.20
2019-04-26T09:51:11.751Z,4.50
2019-04-26T09:53:16.437Z,4.70
2019-04-26T09:55:20.600Z,4.95
2019-04-26T09:57:24.702Z,5.15
2019-04-26T09:59:30.714Z,4.78
2019-04-26T10:01:34.295Z,4.58
2019-04-26T10:03:38.143Z,4.58
2019-04-26T10:05:42.059Z,4.53
2019-04-26T10:07:45.924Z,4.10
2019-04-26T10:09:51.640Z,4.55
2019-04-26T10:11:57.024Z,5.05
2019-04-26T10:14:02.581Z,5.30
2019-04-26T10:16:14.754Z,5.35
2019-04-26T10:18:24.218Z,4.93
2019-04-26T10:20:26.254Z,4.60
2019-04-26T10:22:32.717Z,4.70
2019-04-26T10:24:36.729Z,4.53
2019-04-26T10:26:40.566Z,4.55
2019-04-26T10:28:46.782Z,4.60
2019-04-26T10:30:51.674Z,4.62
2019-04-26T10:32:58.349Z,4.50
2019-04-26T10:35:01.168Z,4.58
2019-04-26T10:37:08.024Z,4.50
2019-04-26T10:39:12.996Z,4.58
2019-04-26T10:41:19.774Z,5.03
2019-04-26T10:43:29.265Z,5.05
2019-04-26T10:45:31.033Z,5.53
2019-04-26T10:47:38.490Z,4.97
2019-04-26T10:49:45.644Z,4.12
2019-04-26T10:51:49.749Z,4.42
2019-04-26T10:54:01.771Z,4.78
2019-04-26T10:56:24.295Z,4.42
2019-04-26T10:58:32.057Z,3.83
2019-04-26T11:00:36.310Z,4.83
2019-04-26T11:02:40.190Z,4.65
2019-04-26T11:04:44.604Z,4.78
2019-04-26T11:06:48.692Z,4.30
2019-04-26T11:08:52.739Z,4.70
2019-04-26T11:10:56.912Z,4.55
2019-04-26T11:13:00.826Z,4.00
2019-04-26T11:15:06.668Z,4.50
2019-04-26T11:17:16.057Z,4.83
2019-04-26T11:19:19.320Z,4.08
2019-04-26T11:21:23.190Z,4.45
2019-04-26T11:23:27.170Z,4.37
2019-04-26T11:25:31.316Z,4.08
2019-04-26T11:27:40.193Z,4.67
2019-04-26T11:29:53.236Z,3.90
2019-04-26T11:31:47.946Z,4.22
2019-04-26T11:33:51.953Z,3.72
2019-04-26T11:35:55.837Z,3.75
2019-04-26T11:37:59.818Z,4.22
2019-04-26T11:40:05.195Z,3.85
2019-04-26T11:42:11.813Z,4.67
2019-04-26T11:44:14.644Z,4.30
2019-04-26T11:46:21.826Z,4.45
2019-04-26T11:48:25.444Z,4.17
2019-04-26T11:50:29.700Z,4.67
2019-04-26T11:52:35.936Z,5.03
2019-04-26T11:54:39.203Z,4.08
2019-04-26T11:56:43.208Z,4.12
2019-04-26T11:58:47.214Z,4.08
2019-04-26T12:00:52.858Z,4.05
2019-04-26T12:02:58.225Z,3.95
2019-04-26T12:05:22.021Z,4.00
2019-04-26T12:07:29.699Z,3.83
2019-04-26T12:09:35.515Z,3.60
2019-04-26T12:11:48.918Z,3.90
2019-04-26T12:13:44.944Z,3.83
2019-04-26T12:15:48.791Z,4.55
2019-04-26T12:17:58.664Z,4.12
2019-04-26T12:19:59.681Z,4.05
2019-04-26T12:22:04.358Z,4.25
2019-04-26T12:24:11.118Z,3.77
2019-04-26T12:26:17.323Z,3.62
2019-04-26T12:28:21.559Z,3.95
2019-04-26T12:30:26.877Z,3.80
2019-04-26T12:32:30.988Z,4.10
2019-04-26T12:34:34.875Z,3.30
2019-04-26T12:36:38.735Z,3.75
2019-04-26T12:38:42.655Z,3.92
2019-04-26T12:40:47.586Z,3.50
2019-04-26T12:42:51.487Z,3.87
2019-04-26T12:45:12.239Z,4.47
2019-04-26T12:47:34.633Z,3.60
2019-04-26T12:49:36.919Z,3.25
2019-04-26T12:51:42.846Z,3.62
2019-04-26T12:53:46.333Z,3.90
2019-04-26T12:55:53.270Z,3.80
2019-04-26T12:57:57.288Z,4.03
2019-04-26T13:00:01.751Z,3.80
2019-04-26T13:02:06.291Z,4.15
2019-04-26T13:04:10.261Z,4.05
2019-04-26T13:06:14.160Z,4.12
2019-04-26T13:08:20.497Z,4.03
2019-04-26T13:10:35.456Z,3.52
2019-04-26T13:12:54.376Z,3.95
2019-04-26T13:15:02.747Z,3.25
2019-04-26T13:17:09.656Z,3.77
2019-04-26T13:19:16.019Z,4.03
2019-04-26T13:21:19.232Z,3.90
2019-04-26T13:23:25.440Z,3.67
2019-04-26T13:25:39.946Z,3.62
2019-04-26T13:27:34.179Z,3.42
2019-04-26T13:29:38.057Z,4.25
2019-04-26T13:31:41.947Z,3.42
2019-04-26T13:33:45.945Z,3.55
2019-04-26T13:36:02.206Z,3.62
2019-04-26T13:37:55.696Z,3.27
2019-04-26T13:40:00.112Z,3.05
2019-04-26T13:42:09.185Z,3.67
2019-04-26T13:44:10.780Z,3.72
2019-04-26T13:46:22.370Z,3.47
2019-04-26T13:48:27.990Z,3.52
2019-04-26T13:51:05.850Z,3.52
2019-04-26T13:53:09.967Z,3.37
2019-04-26T13:55:13.943Z,3.20
2019-04-26T13:57:20.937Z,3.00
2019-04-26T13:59:28.206Z,3.17
2019-04-26T14:01:30.600Z,3.00
2019-04-26T14:03:34.510Z,3.70
2019-04-26T14:05:39.871Z,3.15
2019-04-26T14:07:44.155Z,2.45
2019-04-26T14:09:48.081Z,2.77
2019-04-26T14:11:53.525Z,2.72
2019-04-26T14:14:00.012Z,2.65
2019-04-26T14:16:06.448Z,2.72
2019-04-26T14:18:10.505Z,2.50
2019-04-26T14:20:14.712Z,2.60
2019-04-26T14:22:20.267Z,2.47
2019-04-26T14:24:40.573Z,2.40
2019-04-26T14:26:47.535Z,2.33
2019-04-26T14:28:54.268Z,3.02
2019-04-26T14:30:57.185Z,2.58
2019-04-26T14:33:01.194Z,2.60
2019-04-26T14:35:06.227Z,3.12
2019-04-26T14:37:15.421Z,2.67
2019-04-26T14:39:19.644Z,2.92
2019-04-26T14:41:23.564Z,2.77
2019-04-26T14:43:40.111Z,2.17
2019-04-26T14:45:36.455Z,2.50
2019-04-26T14:47:47.134Z,2.90
2019-04-26T14:49:44.351Z,2.40
2019-04-26T14:51:51.270Z,2.70
2019-04-26T14:53:56.631Z,2.62
2019-04-26T14:56:01.035Z,2.70
2019-04-26T14:58:05.054Z,2.85
2019-04-26T15:00:10.164Z,2.20
2019-04-26T15:02:15.803Z,2.87
2019-04-26T15:04:33.564Z,2.83
2019-04-26T15:06:39.002Z,3.05
2019-04-26T15:08:48.656Z,3.37
2019-04-26T15:11:01.050Z,3.05
2019-04-26T15:13:15.028Z,3.30
2019-04-26T15:15:10.188Z,3.05
2019-04-26T15:17:16.363Z,2.80
2019-04-26T15:19:19.746Z,3.40
2019-04-26T15:21:27.256Z,2.50
2019-04-26T15:23:29.088Z,2.72
2019-04-26T15:25:33.616Z,2.70
2019-04-26T15:27:37.638Z,2.58
2019-04-26T15:29:42.313Z,2.62
2019-04-26T15:31:46.378Z,2.27
2019-04-26T15:33:52.386Z,2.67
2019-04-26T15:35:56.414Z,2.60
2019-04-26T15:38:01.483Z,2.80
2019-04-26T15:40:13.800Z,2.50
2019-04-26T15:42:29.507Z,2.47
2019-04-26T15:44:35.899Z,2.83
2019-04-26T15:46:56.589Z,2.42
2019-04-26T15:49:05.411Z,2.58
2019-04-26T15:51:09.725Z,3.22
2019-04-26T15:53:14.781Z,3.27
2019-04-26T15:55:18.969Z,2.80
2019-04-26T15:57:24.399Z,2.70
2019-04-26T15:59:28.415Z,2.85
2019-04-26T16:01:32.606Z,2.72
2019-04-26T16:03:36.839Z,3.00
2019-04-26T16:05:43.343Z,3.00
2019-04-26T16:07:47.339Z,3.50
2019-04-26T16:09:55.969Z,2.72
2019-04-26T16:11:56.764Z,3.37
2019-04-26T16:14:02.104Z,3.80
2019-04-26T16:16:06.319Z,3.75
2019-04-26T16:18:10.564Z,4.30
2019-04-26T16:20:15.950Z,4.25
2019-04-26T16:22:19.967Z,4.72
2019-04-26T16:24:24.148Z,4.47
2019-04-26T16:26:29.322Z,4.03
2019-04-26T16:28:38.461Z,3.50
2019-04-26T16:30:42.868Z,3.72
2019-04-26T16:32:52.660Z,3.45
2019-04-26T16:34:57.845Z,4.33
2019-04-26T16:37:03.112Z,4.37
2019-04-26T16:39:10.430Z,4.55
2019-04-26T16:41:14.476Z,5.50
2019-04-26T16:43:34.849Z,4.60
2019-04-26T16:45:23.878Z,4.40
2019-04-26T16:47:28.240Z,4.60
2019-04-26T16:49:35.111Z,4.62
2019-04-26T16:51:37.589Z,4.80
2019-04-26T16:53:56.980Z,7.65
2019-04-26T16:55:52.171Z,5.40
2019-04-26T16:57:57.325Z,5.12
2019-04-26T17:00:00.221Z,4.40
2019-04-26T17:02:04.076Z,4.03
2019-04-26T17:04:11.163Z,4.08
2019-04-26T17:06:14.307Z,4.05
2019-04-26T17:08:19.272Z,4.25
2019-04-26T17:10:24.813Z,4.35
2019-04-26T17:12:29.071Z,4.00
2019-04-26T17:14:34.166Z,4.37
2019-04-26T17:16:38.382Z,4.33
2019-04-26T17:18:42.731Z,4.33
2019-04-26T17:20:48.167Z,4.35
2019-04-26T17:23:00.599Z,4.97
2019-04-26T17:25:09.872Z,3.98
2019-04-26T17:27:15.370Z,4.35
2019-04-26T17:29:19.239Z,4.42
2019-04-26T17:31:23.323Z,4.75
2019-04-26T17:33:28.231Z,4.90
2019-04-26T17:35:36.564Z,4.58
2019-04-26T17:37:42.208Z,4.20
2019-04-26T17:39:47.561Z,4.70
2019-04-26T17:41:54.124Z,4.97
2019-04-26T17:44:08.070Z,4.53
2019-04-26T17:46:02.950Z,4.42
2019-04-26T17:48:12.798Z,4.62
2019-04-26T17:50:12.912Z,4.78
2019-04-26T17:52:16.917Z,5.12
2019-04-26T17:54:40.774Z,5.45
2019-04-26T17:56:31.550Z,5.25
2019-04-26T17:58:34.329Z,5.20
2019-04-26T18:00:45.910Z,5.30
2019-04-26T18:02:48.009Z,5.22
2019-04-26T18:04:58.866Z,4.72
2019-04-26T18:07:03.025Z,4.87
2019-04-26T18:09:00.250Z,5.28
2019-04-26T18:11:04.365Z,4.78
2019-04-26T18:13:11.218Z,5.17
2019-04-26T18:15:18.833Z,5.08
2019-04-26T18:17:23.150Z,5.62
2019-04-26T18:19:33.388Z,5.37
2019-04-26T18:21:39.140Z,5.28
2019-04-26T18:23:44.665Z,5.62
2019-04-26T18:25:48.670Z,5.35
2019-04-26T18:27:53.537Z,4.78
2019-04-26T18:29:59.860Z,5.47
2019-04-26T18:32:03.729Z,5.87
2019-04-26T18:34:08.427Z,6.58
2019-04-26T18:36:13.090Z,5.58
2019-04-26T18:38:24.754Z,7.30
2019-04-26T18:40:28.619Z,6.25
2019-04-26T18:42:33.413Z,6.72
2019-04-26T18:44:43.333Z,7.35
2019-04-26T18:46:47.135Z,6.95
2019-04-26T18:48:50.716Z,7.33
2019-04-26T18:50:55.363Z,5.90
2019-04-26T18:53:13.944Z,5.50
2019-04-26T18:55:29.006Z,5.53
2019-04-26T18:59:34.313Z,4.92
2019-04-26T19:01:40.802Z,5.17
2019-04-26T19:03:43.816Z,5.40
2019-04-26T19:05:47.874Z,5.65
2019-04-26T19:07:51.736Z,5.28
2019-04-26T19:09:59.262Z,5.58
2019-04-26T19:12:02.759Z,5.20
2019-04-26T19:14:13.066Z,5.60
2019-04-26T19:16:32.035Z,5.83
2019-04-26T19:18:37.943Z,6.30
2019-04-26T19:21:02.858Z,5.40
2019-04-26T19:23:08.195Z,6.15
2019-04-26T19:25:20.890Z,6.35
2019-04-26T19:27:22.324Z,5.70
2019-04-26T19:29:32.727Z,5.33
2019-04-26T19:31:28.947Z,6.17
2019-04-26T19:33:32.845Z,5.17
2019-04-26T19:35:39.330Z,6.28
2019-04-26T19:37:43.380Z,6.50
2019-04-26T19:39:47.462Z,6.42
2019-04-26T19:41:57.329Z,5.97
2019-04-26T19:43:57.218Z,6.62
2019-04-26T19:46:02.648Z,6.12
2019-04-26T19:48:20.400Z,6.28
2019-04-26T19:50:30.440Z,5.65
2019-04-26T19:52:39.470Z,6.35
2019-04-26T19:54:50.629Z,6.50
2019-04-26T19:57:08.330Z,6.75
2019-04-26T19:59:12.378Z,6.25
2019-04-26T20:01:16.465Z,5.83
2019-04-26T20:03:28.148Z,6.53
2019-04-26T20:05:32.116Z,6.45
2019-04-26T20:07:36.298Z,6.00
2019-04-26T20:09:41.893Z,6.47
2019-04-26T20:11:47.058Z,6.78
2019-04-26T20:13:55.156Z,7.15
2019-04-26T20:15:57.436Z,6.62
2019-04-26T20:18:03.909Z,6.87
2019-04-26T20:20:18.872Z,7.17
2019-04-26T20:22:13.664Z,6.62
2019-04-26T20:24:19.330Z,7.22
2019-04-26T20:26:23.317Z,6.80
2019-04-26T20:28:29.680Z,5.95
2019-04-26T20:30:40.084Z,6.30
2019-04-26T20:32:45.174Z,6.65
2019-04-26T20:34:50.639Z,7.15
2019-04-26T20:36:54.548Z,7.53
2019-04-26T20:38:58.471Z,7.20
2019-04-26T20:41:02.300Z,7.12
2019-04-26T20:43:07.034Z,7.00
2019-04-26T20:45:16.572Z,7.25
2019-04-26T20:47:17.935Z,6.28
2019-04-26T20:49:21.927Z,6.85
2019-04-26T20:51:26.059Z,7.08
2019-04-26T20:53:30.820Z,6.55
2019-04-26T20:55:35.602Z,6.75
2019-04-26T20:57:42.064Z,7.05
2019-04-26T20:59:45.261Z,6.85
2019-04-26T21:02:02.600Z,7.33
2019-04-26T21:03:54.771Z,6.55
2019-04-26T21:06:02.947Z,7.80
2019-04-26T21:08:07.608Z,7.95
2019-04-26T21:10:14.966Z,7.85
2019-04-26T21:12:21.939Z,7.40
2019-04-26T21:14:26.021Z,8.15
2019-04-26T21:16:29.899Z,7.70
2019-04-26T21:18:39.987Z,10.00
2019-04-26T21:20:39.836Z,9.15
2019-04-26T21:22:43.705Z,8.83
2019-04-26T21:24:50.745Z,8.23
2019-04-26T21:26:58.763Z,7.78
2019-04-26T21:29:20.431Z,7.40
2019-04-26T21:31:32.886Z,6.80
2019-04-26T21:33:39.035Z,5.62
2019-04-26T21:35:57.646Z,6.08
2019-04-26T21:38:04.262Z,5.97
2019-04-26T21:40:22.432Z,5.35
2019-04-26T21:42:25.525Z,4.90
2019-04-26T21:44:28.199Z,5.00
2019-04-26T21:46:33.503Z,4.80
2019-04-26T21:48:41.954Z,5.28
2019-04-26T21:50:44.581Z,5.03
2019-04-26T21:52:49.052Z,4.97
2019-04-26T21:54:56.303Z,5.53
2019-04-26T21:56:58.867Z,5.70
2019-04-26T21:59:03.761Z,5.72
2019-04-26T22:01:15.685Z,5.47
2019-04-26T22:03:19.080Z,5.92
2019-04-26T22:05:23.454Z,5.97
2019-04-26T22:07:27.686Z,5.92
2019-04-26T22:09:52.917Z,5.97
2019-04-26T22:11:57.338Z,6.20
2019-04-26T22:14:13.183Z,6.03
2019-04-26T22:18:42.791Z,7.15
2019-04-26T22:21:00.712Z,7.00
2019-04-26T22:23:21.537Z,7.12
2019-04-26T22:25:27.147Z,7.95
2019-04-26T22:27:31.174Z,8.48
2019-04-26T22:29:35.419Z,9.45
2019-04-26T22:31:41.408Z,10.30
2019-04-26T22:33:45.505Z,10.85
2019-04-26T22:35:50.501Z,11.88
2019-04-26T22:37:55.219Z,12.45
2019-04-26T22:39:59.472Z,12.60
2019-04-26T22:42:03.962Z,14.25
2019-04-26T22:44:31.241Z,13.22
2019-04-26T22:46:47.283Z,13.35
2019-04-26T22:49:01.419Z,13.08
2019-04-26T22:53:08.680Z,14.20
2019-04-26T22:55:17.645Z,15.32
2019-04-26T22:57:18.850Z,15.58
2019-04-26T22:59:25.211Z,17.73
2019-04-26T23:01:29.214Z,18.07
2019-04-26T23:03:36.613Z,18.10
2019-04-26T23:05:39.362Z,19.27
2019-04-26T23:07:43.258Z,20.20
2019-04-26T23:09:51.846Z,21.37
2019-04-26T23:11:54.524Z,22.07
2019-04-26T23:14:18.936Z,21.80
2019-04-26T23:16:40.413Z,21.20
2019-04-26T23:21:11.986Z,20.90
2019-04-26T23:23:15.030Z,21.23
2019-04-26T23:25:18.909Z,20.48
2019-04-26T23:27:23.712Z,19.90
2019-04-26T23:29:27.755Z,19.12
2019-04-26T23:31:33.352Z,18.27
2019-04-26T23:33:37.340Z,18.07
2019-04-26T23:35:43.739Z,18.65
2019-04-26T23:37:46.826Z,18.20
2019-04-26T23:39:51.111Z,17.37
2019-04-26T23:41:55.096Z,17.70
2019-04-26T23:44:02.704Z,16.65
2019-04-26T23:46:04.730Z,16.15
2019-04-26T23:48:12.078Z,16.50
2019-04-26T23:50:14.185Z,16.25
2019-04-26T23:52:18.623Z,14.58
2019-04-26T23:54:23.869Z,15.80
2019-04-26T23:56:27.953Z,16.57
2019-04-26T23:58:31.823Z,17.17
